KAMW/AMW METAR and TAF weather

Enter ICAO airport designator
Station Type Date Time Source
KAMW METAR 2021/07/26 15:53 UTC NOAA

KAMW 261553Z AUTO 19006KT 10SM CLR 29/19 A3008 RMK AO2 SLP174 T02890194


Station Type Date Time Source
KAMW Decoded METAR 2021/07/26 15:53 UTC NOAA

AMES MUNICIPAL AIRPORT, IA, United States (KAMW) 41-59N 93-37W 279M
Jul 26, 2021 - 11:53 AM EDT / 2021.07.26 1553 UTC
Wind: from the S (190 degrees) at 7 MPH (6 KT):0
Visibility: 10 mile(s):0
Sky conditions: clear
Temperature: 84.0 F (28.9 C)
Dew Point: 66.9 F (19.4 C)
Relative Humidity: 56%
Pressure (altimeter): 30.08 in. Hg (1018 hPa)
ob: KAMW 261553Z AUTO 19006KT 10SM CLR 29/19 A3008 RMK AO2 SLP174 T02890194
cycle: 16

Station Type Date Time Source
KAMW TAF UTC NOAA

Error!

Example: see airport list